Time;durP1;ratioP1;P1;durP2;ratioP2;P2;SDS_P1;SDS_P2;PMS_P1;PMS_P2;Temp;Humidity;BMP_temperature;BMP_pressure;BME280_temperature;BME280_humidity;BME280_pressure;Samples;Min_cycle;Max_cycle;Signal;HPM_P1;HPM_P2
2023/06/29 06:45:57;;;;;;;1.92;1.05;;;12.80;51.90;;;;;;6273380;22;20358;-70
2023/06/29 06:48:24;;;;;;;3.47;1.20;;;12.80;52.30;;;;;;6274143;22;20435;-70
2023/06/29 06:50:51;;;;;;;2.25;1.00;;;12.70;52.30;;;;;;6276146;22;20007;-70
2023/06/29 06:53:19;;;;;;;4.03;0.65;;;12.70;52.70;;;;;;6276388;22;19999;-70
2023/06/29 06:55:47;;;;;;;2.15;0.80;;;12.70;52.00;;;;;;6274600;22;20057;-70
2023/06/29 06:58:14;;;;;;;5.13;0.82;;;12.70;52.30;;;;;;6276060;22;20066;-70
2023/06/29 07:00:42;;;;;;;1.05;0.65;;;12.70;52.20;;;;;;6275912;22;20288;-70
2023/06/29 07:03:09;;;;;;;4.53;1.00;;;12.70;52.30;;;;;;6274234;22;20008;-70
2023/06/29 07:05:37;;;;;;;1.38;1.00;;;12.70;52.50;;;;;;6272487;22;20007;-70
2023/06/29 07:08:04;;;;;;;2.42;1.00;;;12.60;52.30;;;;;;6272858;22;20419;-72
2023/06/29 07:10:32;;;;;;;1.60;0.93;;;12.60;52.10;;;;;;6303780;22;20014;-73
2023/06/29 07:12:59;;;;;;;1.75;0.93;;;12.50;52.00;;;;;;6303749;22;20329;-72
2023/06/29 07:15:26;;;;;;;2.17;0.98;;;12.50;51.90;;;;;;6303409;22;20003;-71
2023/06/29 07:17:54;;;;;;;3.03;1.00;;;12.50;52.20;;;;;;6303595;22;20095;-71
2023/06/29 07:20:22;;;;;;;1.92;1.10;;;12.50;52.70;;;;;;6303740;22;20460;-71
2023/06/29 07:22:50;;;;;;;2.13;1.27;;;12.50;52.70;;;;;;6271879;22;20004;-71
2023/06/29 07:25:18;;;;;;;1.83;0.90;;;12.50;52.70;;;;;;6302108;22;20003;-72
2023/06/29 07:27:46;;;;;;;5.15;1.13;;;12.40;52.90;;;;;;6302894;22;20007;-71
2023/06/29 07:30:14;;;;;;;3.13;1.33;;;12.40;52.90;;;;;;6302907;22;20319;-71
2023/06/29 07:32:41;;;;;;;3.40;1.15;;;12.40;53.20;;;;;;6276017;22;19999;-72
2023/06/29 07:35:09;;;;;;;5.00;1.20;;;12.30;53.20;;;;;;6303838;22;20465;-74
2023/06/29 07:37:36;;;;;;;3.05;1.20;;;12.30;53.10;;;;;;6303742;22;20057;-73
2023/06/29 07:40:04;;;;;;;3.97;1.13;;;12.30;53.30;;;;;;6302610;22;20011;-69
2023/06/29 07:42:32;;;;;;;2.75;1.10;;;12.30;53.40;;;;;;6275400;22;20022;-72
2023/06/29 07:44:59;;;;;;;4.00;1.30;;;12.30;53.50;;;;;;6275903;22;20046;-71
2023/06/29 07:47:27;;;;;;;2.38;1.20;;;12.20;53.30;;;;;;6302931;22;20010;-71
2023/06/29 07:49:54;;;;;;;2.33;1.20;;;12.20;53.70;;;;;;6247830;22;20014;-71
2023/06/29 07:52:22;;;;;;;4.78;1.17;;;12.20;54.00;;;;;;6302434;22;20387;-71
2023/06/29 07:54:50;;;;;;;4.28;1.50;;;12.20;53.90;;;;;;6302724;22;20002;-71
2023/06/29 07:57:18;;;;;;;3.70;1.33;;;12.20;53.90;;;;;;6302400;22;20091;-72
2023/06/29 07:59:45;;;;;;;1.73;1.35;;;12.20;54.00;;;;;;6274911;22;20082;-71
2023/06/29 08:02:12;;;;;;;3.55;1.40;;;12.20;54.10;;;;;;6302593;22;20410;-72
2023/06/29 08:04:40;;;;;;;3.78;1.63;;;12.20;54.00;;;;;;6302054;22;20080;-72
2023/06/29 08:07:08;;;;;;;2.25;1.33;;;12.10;54.30;;;;;;6276553;22;20377;-72
2023/06/29 08:09:35;;;;;;;3.78;1.20;;;12.10;54.40;;;;;;6303629;22;20471;-73
2023/06/29 08:12:03;;;;;;;2.35;1.40;;;12.10;54.40;;;;;;6275906;22;20030;-73
2023/06/29 08:14:32;;;;;;;2.15;1.20;;;12.10;54.50;;;;;;6275906;22;20423;-74
2023/06/29 08:17:00;;;;;;;2.47;1.23;;;12.00;54.70;;;;;;6275897;22;20105;-72
2023/06/29 08:19:27;;;;;;;4.10;1.30;;;12.00;54.90;;;;;;6303188;22;20031;-70
2023/06/29 08:21:55;;;;;;;1.88;1.20;;;12.00;54.90;;;;;;6302764;22;20347;-70
2023/06/29 08:24:22;;;;;;;3.63;1.42;;;12.00;55.00;;;;;;6300371;22;20025;-71
2023/06/29 08:26:50;;;;;;;2.90;1.48;;;11.90;55.20;;;;;;6302138;22;20015;-72
2023/06/29 08:29:17;;;;;;;3.92;1.45;;;11.80;55.20;;;;;;6250348;22;19999;-72
2023/06/29 08:31:45;;;;;;;3.25;1.40;;;11.90;55.40;;;;;;6276182;22;20382;-71
2023/06/29 08:34:12;;;;;;;3.97;1.77;;;11.80;55.60;;;;;;6275445;22;20027;-71
2023/06/29 08:36:39;;;;;;;2.65;1.67;;;11.80;56.00;;;;;;6302493;22;20060;-73
2023/06/29 08:39:08;;;;;;;2.70;1.50;;;11.70;55.90;;;;;;6302440;22;20014;-71
2023/06/29 08:41:36;;;;;;;5.47;1.80;;;11.70;56.50;;;;;;6247560;22;20012;-71
2023/06/29 08:44:04;;;;;;;3.78;1.75;;;11.70;56.50;;;;;;6302540;22;19999;-70
2023/06/29 08:46:31;;;;;;;3.28;1.70;;;11.70;56.50;;;;;;6275416;22;20023;-71
2023/06/29 08:48:59;;;;;;;3.58;1.42;;;11.70;56.60;;;;;;6250085;22;20034;-70
2023/06/29 08:51:26;;;;;;;3.03;1.58;;;11.70;56.60;;;;;;6248974;22;20480;-70
2023/06/29 08:53:54;;;;;;;2.78;1.40;;;11.70;56.70;;;;;;6249156;22;20026;-69
2023/06/29 08:56:23;;;;;;;2.15;1.15;;;11.70;56.70;;;;;;6273191;22;20074;-71
2023/06/29 08:58:51;;;;;;;2.38;1.45;;;11.60;56.70;;;;;;6274919;22;20338;-72
2023/06/29 09:01:18;;;;;;;2.20;1.20;;;11.60;57.00;;;;;;6223773;22;20484;-73
2023/06/29 09:03:46;;;;;;;3.58;1.27;;;11.60;57.20;;;;;;6301629;22;20007;-69
2023/06/29 09:06:15;;;;;;;3.50;1.60;;;11.50;56.90;;;;;;6250900;22;20004;-69
2023/06/29 09:08:42;;;;;;;3.33;1.40;;;11.50;57.00;;;;;;6301942;22;19999;-72
2023/06/29 09:11:10;;;;;;;3.97;1.50;;;11.50;56.90;;;;;;6275029;22;20006;-73
2023/06/29 09:13:37;;;;;;;2.80;1.50;;;11.50;57.00;;;;;;6249101;22;20007;-71
2023/06/29 09:16:05;;;;;;;3.17;1.48;;;11.50;56.90;;;;;;6301017;22;20005;-71
2023/06/29 09:18:32;;;;;;;4.50;1.60;;;11.40;56.70;;;;;;6301715;22;20003;-70
2023/06/29 09:21:00;;;;;;;2.47;1.40;;;11.40;56.70;;;;;;6301656;22;20056;-71
2023/06/29 09:23:28;;;;;;;4.22;1.40;;;11.40;56.60;;;;;;6245905;22;20030;-70
2023/06/29 09:25:59;;;;;;;2.53;1.45;;;11.40;56.70;;;;;;6272885;22;20448;-72
2023/06/29 09:28:27;;;;;;;4.32;1.75;;;11.30;56.40;;;;;;6301733;22;20525;-70
2023/06/29 09:30:55;;;;;;;3.05;1.45;;;11.40;56.50;;;;;;6302910;22;20297;-73
2023/06/29 09:33:26;;;;;;;4.68;1.77;;;11.40;56.30;;;;;;6272368;22;20067;-71
2023/06/29 09:35:53;;;;;;;3.17;1.70;;;11.30;56.50;;;;;;6275377;22;20031;-72
2023/06/29 09:38:21;;;;;;;2.25;1.52;;;11.30;56.70;;;;;;6302024;22;20442;-74
2023/06/29 09:40:49;;;;;;;3.85;1.35;;;11.20;56.60;;;;;;6275160;22;20031;-72
2023/06/29 09:43:22;;;;;;;1.95;1.30;;;11.20;56.80;;;;;;6301462;22;20037;-73
2023/06/29 09:45:50;;;;;;;4.32;1.50;;;11.20;56.80;;;;;;6272560;22;20015;-71
2023/06/29 09:48:19;;;;;;;7.13;1.63;;;11.20;57.10;;;;;;6248607;22;20006;-69
2023/06/29 09:50:50;;;;;;;7.18;1.65;;;11.20;57.30;;;;;;6249967;22;20368;-69
2023/06/29 09:53:18;;;;;;;4.03;1.67;;;11.10;57.30;;;;;;6275818;22;20042;-70
2023/06/29 09:55:46;;;;;;;5.35;1.70;;;11.10;57.20;;;;;;6303060;22;20499;-69
2023/06/29 09:58:14;;;;;;;5.18;1.48;;;11.10;57.50;;;;;;6250719;22;20433;-70
2023/06/29 10:00:41;;;;;;;1.50;1.08;;;11.10;57.50;;;;;;6250670;22;20105;-70
2023/06/29 10:03:09;;;;;;;3.53;1.30;;;11.10;56.80;;;;;;6277221;22;20010;-70
2023/06/29 10:05:38;;;;;;;2.60;1.00;;;11.00;56.70;;;;;;6302605;22;20011;-71
2023/06/29 10:08:05;;;;;;;2.75;1.25;;;11.10;56.70;;;;;;6275591;22;20014;-71
2023/06/29 10:10:33;;;;;;;2.90;1.00;;;11.00;56.70;;;;;;6273493;22;20019;-70
2023/06/29 10:13:01;;;;;;;1.65;1.10;;;11.00;56.60;;;;;;6247706;22;20418;-70
2023/06/29 10:15:28;;;;;;;1.40;1.10;;;11.00;56.60;;;;;;6250095;22;20004;-71
2023/06/29 10:18:15;;;;;;;1.80;1.08;;;11.00;57.10;;;;;;6250956;22;20011;-70
2023/06/29 10:20:46;;;;;;;2.95;1.40;;;11.00;57.10;;;;;;6250051;22;20022;-72
2023/06/29 10:23:15;;;;;;;4.53;1.45;;;10.90;56.90;;;;;;6273436;22;20031;-69
2023/06/29 10:25:44;;;;;;;4.35;1.52;;;10.90;57.10;;;;;;6275592;22;20436;-70
2023/06/29 10:28:12;;;;;;;2.33;1.40;;;10.90;56.90;;;;;;6251228;22;19999;-69
2023/06/29 10:30:46;;;;;;;3.67;1.50;;;10.90;57.00;;;;;;6276402;22;20701;-70
2023/06/29 10:33:14;;;;;;;2.55;1.60;;;10.80;56.80;;;;;;6275784;22;20013;-72
2023/06/29 10:35:43;;;;;;;2.63;1.50;;;10.80;57.00;;;;;;6276860;22;20057;-72
2023/06/29 10:38:14;;;;;;;2.60;1.35;;;10.80;57.10;;;;;;6251842;22;20090;-71
2023/06/29 10:40:48;;;;;;;3.95;1.73;;;10.70;57.40;;;;;;6275465;22;20086;-74
2023/06/29 10:43:16;;;;;;;4.10;1.60;;;10.70;57.30;;;;;;6250655;22;20480;-72
2023/06/29 10:45:44;;;;;;;3.55;1.70;;;10.70;57.50;;;;;;6276035;22;20046;-71
2023/06/29 10:48:16;;;;;;;3.88;1.40;;;10.70;57.60;;;;;;6302219;22;20096;-72
2023/06/29 10:50:45;;;;;;;5.35;1.75;;;10.70;57.90;;;;;;6274765;22;20015;-72
2023/06/29 10:53:16;;;;;;;2.05;1.52;;;10.60;58.60;;;;;;6301464;22;20030;-71
2023/06/29 10:55:46;;;;;;;2.97;1.52;;;10.60;59.00;;;;;;6301888;22;20059;-71
2023/06/29 10:58:23;;;;;;;3.63;1.63;;;10.50;59.20;;;;;;6301846;22;20082;-73
2023/06/29 11:00:51;;;;;;;3.38;1.60;;;10.50;59.50;;;;;;6301485;22;20015;-71
2023/06/29 11:03:20;;;;;;;6.75;1.67;;;10.50;59.70;;;;;;6302525;22;20018;-71
2023/06/29 11:05:54;;;;;;;2.03;1.40;;;10.40;60.00;;;;;;6303064;22;20002;-71
2023/06/29 11:08:24;;;;;;;2.80;1.50;;;10.40;60.50;;;;;;6249963;22;19996;-73
2023/06/29 11:10:52;;;;;;;2.60;1.35;;;10.30;60.30;;;;;;6302370;22;20001;-70
2023/06/29 11:13:20;;;;;;;3.00;1.55;;;10.30;60.50;;;;;;6224834;22;20018;-72
2023/06/29 11:15:56;;;;;;;3.15;1.30;;;10.30;60.40;;;;;;6274104;22;20415;-72
2023/06/29 11:18:23;;;;;;;3.13;1.40;;;10.30;59.30;;;;;;6274900;22;20007;-69
2023/06/29 11:20:51;;;;;;;4.93;1.30;;;10.30;59.50;;;;;;6275239;22;20019;-70
2023/06/29 11:23:18;;;;;;;2.95;1.38;;;10.30;59.60;;;;;;6273089;22;20008;-70
2023/06/29 11:25:46;;;;;;;3.75;1.40;;;10.30;59.70;;;;;;6303747;22;20094;-71
2023/06/29 11:28:16;;;;;;;5.32;1.38;;;10.30;60.00;;;;;;6302895;22;20019;-69
2023/06/29 11:30:44;;;;;;;2.63;1.50;;;10.20;60.00;;;;;;6302977;22;20407;-70
2023/06/29 11:33:11;;;;;;;3.00;1.48;;;10.20;60.10;;;;;;6276705;22;20407;-71
2023/06/29 11:35:43;;;;;;;5.07;1.35;;;10.20;60.50;;;;;;6303703;22;20018;-70
2023/06/29 11:38:11;;;;;;;2.42;1.35;;;10.20;60.50;;;;;;6251729;22;20007;-70
2023/06/29 11:40:38;;;;;;;3.70;1.30;;;10.20;60.40;;;;;;6302419;22;20022;-70
2023/06/29 11:43:06;;;;;;;2.10;1.67;;;10.20;59.90;;;;;;6304519;22;19999;-71
2023/06/29 11:45:33;;;;;;;3.35;1.70;;;10.20;60.20;;;;;;6278535;22;20019;-69
2023/06/29 11:48:01;;;;;;;1.85;1.27;;;10.20;60.00;;;;;;6304508;22;20049;-71
2023/06/29 11:50:30;;;;;;;4.13;1.38;;;10.20;60.00;;;;;;6305612;22;20479;-71
2023/06/29 11:52:58;;;;;;;3.55;1.55;;;10.20;60.00;;;;;;6279442;22;19999;-71
2023/06/29 11:55:25;;;;;;;2.90;1.10;;;10.20;60.10;;;;;;6275747;22;20084;-70
2023/06/29 11:57:54;;;;;;;2.95;1.30;;;10.20;59.10;;;;;;6275965;22;20322;-71
2023/06/29 12:00:22;;;;;;;1.35;1.15;;;10.20;59.00;;;;;;6305426;22;20026;-71
2023/06/29 12:02:50;;;;;;;2.40;1.40;;;10.20;58.90;;;;;;6304982;22;20003;-72
2023/06/29 12:05:17;;;;;;;2.72;1.55;;;10.20;58.90;;;;;;6305027;22;20015;-71
2023/06/29 12:07:46;;;;;;;2.40;1.33;;;10.20;58.90;;;;;;6305929;22;20056;-71
2023/06/29 12:10:24;;;;;;;2.83;1.70;;;10.20;59.20;;;;;;6305206;22;20406;-70
2023/06/29 12:12:59;;;;;;;2.95;1.70;;;10.20;59.20;;;;;;6278401;22;20322;-70
2023/06/29 12:15:27;;;;;;;2.90;1.70;;;10.20;59.70;;;;;;6304925;22;20120;-70
2023/06/29 12:18:23;;;;;;;3.15;1.58;;;10.10;59.90;;;;;;6278952;22;20008;-70
2023/06/29 12:20:50;;;;;;;6.30;1.65;;;10.10;60.50;;;;;;6301711;22;20345;-70
2023/06/29 12:23:18;;;;;;;6.00;1.85;;;10.00;60.40;;;;;;6305788;22;20003;-70
2023/06/29 12:25:52;;;;;;;6.18;2.05;;;10.00;60.70;;;;;;6306499;22;20066;-71
2023/06/29 12:28:19;;;;;;;7.72;2.35;;;9.90;60.90;;;;;;6279633;22;20037;-69
2023/06/29 12:30:47;;;;;;;4.22;2.00;;;9.90;61.50;;;;;;6304957;22;20074;-71
2023/06/29 12:33:14;;;;;;;7.75;2.10;;;9.80;61.90;;;;;;6306400;22;20000;-72
2023/06/29 12:35:42;;;;;;;4.18;1.98;;;9.80;62.60;;;;;;6305675;22;20003;-71
2023/06/29 17:54:11;;;;;;;2.67;1.00;;;9.40;63.30;;;;;;6242822;22;20352;-69
2023/06/29 17:56:40;;;;;;;3.03;1.10;;;9.30;63.30;;;;;;6275126;22;20758;-68
2023/06/29 17:59:07;;;;;;;6.03;0.75;;;9.30;63.20;;;;;;6278206;22;20075;-68
2023/06/29 18:01:35;;;;;;;1.38;1.10;;;9.30;63.50;;;;;;6307601;22;20493;-68
2023/06/29 18:04:02;;;;;;;2.92;1.05;;;9.30;63.60;;;;;;6307285;22;20086;-68
2023/06/29 18:06:30;;;;;;;4.65;1.23;;;9.30;63.90;;;;;;6307233;22;20003;-68
2023/06/29 18:08:58;;;;;;;2.13;1.00;;;9.30;63.60;;;;;;6307215;22;20014;-68
2023/06/29 18:11:26;;;;;;;2.17;0.73;;;9.30;63.40;;;;;;6307140;22;20007;-69
2023/06/29 18:13:53;;;;;;;1.77;0.98;;;9.40;63.40;;;;;;6280446;22;20000;-69
2023/06/29 18:16:21;;;;;;;1.98;0.95;;;9.40;63.20;;;;;;6307158;22;20307;-68
2023/06/29 18:18:48;;;;;;;2.35;0.82;;;9.40;63.10;;;;;;6307625;22;19999;-68
2023/06/29 18:21:15;;;;;;;1.63;0.80;;;9.40;63.10;;;;;;6307284;22;20014;-68
2023/06/29 18:23:43;;;;;;;3.63;1.08;;;9.50;63.00;;;;;;6307775;22;20490;-68
2023/06/29 18:26:10;;;;;;;3.13;0.85;;;9.50;62.90;;;;;;6306922;22;20006;-68
2023/06/29 18:28:38;;;;;;;1.25;0.70;;;9.50;62.80;;;;;;6307084;22;20013;-68
2023/06/29 18:31:05;;;;;;;1.23;0.80;;;9.50;62.80;;;;;;6306494;22;20011;-69
2023/06/29 18:33:33;;;;;;;5.10;0.80;;;9.50;62.70;;;;;;6306751;22;19999;-69
2023/06/29 18:36:00;;;;;;;2.53;0.88;;;9.50;62.70;;;;;;6307491;22;20345;-68
2023/06/29 18:38:27;;;;;;;1.60;0.90;;;9.50;62.80;;;;;;6307351;22;20011;-68
2023/06/29 18:40:59;;;;;;;2.17;0.60;;;9.50;62.80;;;;;;6306288;22;20016;-69
2023/06/29 18:43:27;;;;;;;3.40;0.75;;;9.50;62.40;;;;;;6307322;22;20076;-68
2023/06/29 18:45:54;;;;;;;1.55;0.75;;;9.60;62.70;;;;;;6307508;22;20057;-69
2023/06/29 18:48:21;;;;;;;0.77;0.60;;;9.60;62.30;;;;;;6307226;22;20630;-68
2023/06/29 18:50:49;;;;;;;2.42;0.60;;;9.60;62.40;;;;;;6306718;22;20015;-68
2023/06/29 20:12:17;;;;;;;0.77;0.70;;;9.70;62.70;;;;;;6304675;22;20380;-69
2023/06/29 20:14:45;;;;;;;2.35;0.75;;;9.70;62.50;;;;;;6306455;22;20014;-70
2023/06/29 20:17:12;;;;;;;0.98;0.80;;;9.70;62.80;;;;;;6306693;22;20078;-69
2023/06/29 20:19:39;;;;;;;1.85;0.60;;;9.70;62.90;;;;;;6305541;22;20030;-69
2023/06/29 20:22:07;;;;;;;2.47;0.80;;;9.60;62.80;;;;;;6305669;22;20019;-69
2023/06/29 20:24:34;;;;;;;1.80;0.70;;;9.60;62.90;;;;;;6305964;22;20417;-69
2023/06/29 20:27:02;;;;;;;3.05;0.70;;;9.70;63.00;;;;;;6306117;22;20038;-70
2023/06/29 20:29:29;;;;;;;1.63;0.70;;;9.60;63.10;;;;;;6305245;22;19999;-70
2023/06/29 20:31:57;;;;;;;0.93;0.82;;;9.60;63.10;;;;;;6306231;22;20303;-69
2023/06/29 20:34:24;;;;;;;2.28;0.70;;;9.70;63.10;;;;;;6306457;22;19999;-69
2023/06/29 20:36:51;;;;;;;4.32;0.77;;;9.70;63.10;;;;;;6305618;22;20027;-72
2023/06/29 20:39:22;;;;;;;1.80;0.68;;;9.70;63.20;;;;;;6305613;22;20330;-69
2023/06/29 20:41:50;;;;;;;1.10;0.60;;;9.70;63.10;;;;;;6306232;22;20019;-69
2023/06/29 20:44:18;;;;;;;1.83;0.52;;;9.70;63.30;;;;;;6305646;22;20007;-70
2023/06/29 20:46:49;;;;;;;0.68;0.50;;;9.60;63.40;;;;;;6305676;22;20003;-69
2023/06/29 20:49:17;;;;;;;0.70;0.70;;;9.60;63.40;;;;;;6305637;22;20434;-70
2023/06/29 20:51:45;;;;;;;5.28;0.95;;;9.70;63.30;;;;;;6304994;22;20095;-69
2023/06/29 20:54:13;;;;;;;1.30;0.77;;;9.70;63.50;;;;;;6302721;22;20003;-69
2023/06/29 20:56:40;;;;;;;1.67;0.73;;;9.70;63.40;;;;;;6304625;22;19999;-70
2023/06/29 20:59:08;;;;;;;4.05;1.00;;;9.60;63.50;;;;;;6305580;22;19996;-70
2023/06/29 21:01:35;;;;;;;1.70;0.80;;;9.60;63.60;;;;;;6305878;22;20003;-70
2023/06/29 21:04:02;;;;;;;0.77;0.60;;;9.70;63.80;;;;;;6306143;22;20422;-70
2023/06/29 21:06:30;;;;;;;0.80;0.65;;;9.70;63.60;;;;;;6305316;22;20422;-70
2023/06/29 21:08:57;;;;;;;0.47;0.47;;;9.70;63.50;;;;;;6305592;22;20082;-70
2023/06/29 23:16:27;;;;;;;3.20;1.80;;;10.50;65.70;;;;;;6297330;22;20168;-74
2023/06/29 23:18:54;;;;;;;3.53;1.48;;;10.50;65.80;;;;;;6305510;22;20015;-71
2023/06/29 23:21:22;;;;;;;6.20;1.60;;;10.60;65.90;;;;;;6304954;22;20046;-72
2023/06/29 23:23:53;;;;;;;3.58;1.50;;;10.70;65.90;;;;;;6306833;22;19999;-72
2023/06/29 23:26:22;;;;;;;4.53;1.50;;;10.70;65.70;;;;;;6305444;22;20076;-72
2023/06/29 23:28:50;;;;;;;3.70;1.40;;;10.70;65.90;;;;;;6304246;22;20282;-72
2023/06/29 23:31:21;;;;;;;3.92;1.23;;;10.70;65.60;;;;;;6304560;22;20026;-72
2023/06/29 23:33:48;;;;;;;3.40;1.10;;;10.80;65.60;;;;;;6305747;22;20008;-72
2023/06/29 23:36:23;;;;;;;2.70;1.17;;;10.80;65.50;;;;;;6306323;22;20025;-72
2023/06/29 23:38:50;;;;;;;1.13;0.90;;;10.90;65.30;;;;;;6280352;22;20013;-72
2023/06/29 23:41:18;;;;;;;1.23;0.93;;;11.00;65.00;;;;;;6305702;22;20065;-72
2023/06/29 23:43:46;;;;;;;3.53;1.10;;;11.00;64.90;;;;;;6305704;22;19999;-72
2023/06/29 23:46:13;;;;;;;0.90;0.80;;;11.00;64.90;;;;;;6306275;22;20457;-71
2023/06/29 23:48:41;;;;;;;4.07;0.85;;;11.10;65.00;;;;;;6306499;22;20089;-72
2023/06/29 23:51:09;;;;;;;3.85;1.15;;;11.10;64.80;;;;;;6306320;22;20014;-72
2023/06/29 23:53:37;;;;;;;1.60;0.90;;;11.20;64.60;;;;;;6305086;22;20022;-72
2023/06/29 23:56:04;;;;;;;3.58;1.00;;;11.20;64.80;;;;;;6305690;22;20003;-73
2023/06/29 23:58:32;;;;;;;9.43;1.17;;;11.20;64.50;;;;;;6305497;22;20007;-73
